createdAt,value
2023-02-28T00:01:28.835Z,6.85
2023-02-28T00:03:56.932Z,4.65
2023-02-28T00:06:26.059Z,5.47
2023-02-28T00:08:53.991Z,4.85
2023-02-28T00:11:22.140Z,4.10
2023-02-28T00:13:50.406Z,5.57
2023-02-28T00:16:22.734Z,6.13
2023-02-28T00:18:51.510Z,7.40
2023-02-28T00:21:20.728Z,5.32
2023-02-28T00:23:48.957Z,6.72
2023-02-28T00:26:16.862Z,4.90
2023-02-28T00:28:44.729Z,5.85
2023-02-28T00:31:12.751Z,5.85
2023-02-28T00:33:42.058Z,11.60
2023-02-28T00:36:12.879Z,8.13
2023-02-28T00:38:42.615Z,4.15
2023-02-28T00:41:10.639Z,5.80
2023-02-28T00:43:40.267Z,7.25
2023-02-28T00:46:08.932Z,7.25
2023-02-28T00:48:37.383Z,6.05
2023-02-28T00:51:07.047Z,8.38
2023-02-28T00:53:35.182Z,7.90
2023-02-28T00:56:03.153Z,9.55
2023-02-28T00:58:31.353Z,9.90
2023-02-28T01:00:59.318Z,4.18
2023-02-28T01:03:27.226Z,4.75
2023-02-28T01:05:55.216Z,5.57
2023-02-28T01:08:24.543Z,5.55
2023-02-28T01:10:52.505Z,9.93
2023-02-28T01:13:20.950Z,5.50
2023-02-28T01:15:53.113Z,6.95
2023-02-28T01:18:21.451Z,9.10
2023-02-28T01:20:49.399Z,6.03
2023-02-28T01:23:17.323Z,7.55
2023-02-28T01:25:46.652Z,9.90
2023-02-28T01:28:14.612Z,7.25
2023-02-28T01:30:42.594Z,8.55
2023-02-28T01:33:10.653Z,10.35
2023-02-28T01:35:38.684Z,7.15
2023-02-28T01:38:20.824Z,9.75
2023-02-28T01:40:51.606Z,6.80
2023-02-28T01:43:24.206Z,7.70
2023-02-28T01:45:52.802Z,9.02
2023-02-28T01:48:23.287Z,7.65
2023-02-28T01:50:52.004Z,7.18
2023-02-28T01:53:23.406Z,8.13
2023-02-28T01:55:55.264Z,6.82
2023-02-28T01:58:23.291Z,6.82
2023-02-28T02:00:52.235Z,5.43
2023-02-28T02:03:22.460Z,7.18
2023-02-28T02:05:50.429Z,6.00
2023-02-28T02:08:20.759Z,7.60
2023-02-28T02:10:52.150Z,9.73
2023-02-28T02:13:45.218Z,5.70
2023-02-28T02:16:26.581Z,5.50
2023-02-28T02:18:58.083Z,7.50
2023-02-28T02:21:58.593Z,7.40
2023-02-28T02:25:00.763Z,9.48
2023-02-28T02:27:45.004Z,6.90
2023-02-28T02:30:40.204Z,12.88
2023-02-28T02:33:47.731Z,8.95
2023-02-28T02:36:23.843Z,9.80
2023-02-28T02:38:54.954Z,9.00
2023-02-28T02:41:29.468Z,8.82
2023-02-28T02:44:04.382Z,8.20
2023-02-28T02:46:36.585Z,6.95
2023-02-28T02:49:07.978Z,9.05
2023-02-28T02:51:38.943Z,8.63
2023-02-28T02:54:13.011Z,8.65
2023-02-28T02:56:44.088Z,8.52
2023-02-28T02:59:15.337Z,7.10
2023-02-28T03:01:44.098Z,6.78
2023-02-28T03:04:16.496Z,10.73
2023-02-28T03:06:45.728Z,9.05
2023-02-28T03:09:13.649Z,10.20
2023-02-28T03:11:43.177Z,11.13
2023-02-28T03:14:27.966Z,9.63
2023-02-28T03:17:19.078Z,6.25
2023-02-28T03:19:53.705Z,7.93
2023-02-28T03:22:44.065Z,7.50
2023-02-28T03:25:18.952Z,10.32
2023-02-28T03:27:57.086Z,7.72
2023-02-28T03:30:31.206Z,9.68
2023-02-28T03:33:05.915Z,11.27
2023-02-28T03:35:38.200Z,9.27
2023-02-28T03:38:14.919Z,8.27
2023-02-28T03:40:48.465Z,6.75
2023-02-28T03:43:23.729Z,10.40
2023-02-28T03:45:53.112Z,9.07
2023-02-28T03:48:25.402Z,9.23
2023-02-28T03:50:57.694Z,7.72
2023-02-28T03:53:31.236Z,14.20
2023-02-28T03:56:02.242Z,8.30
2023-02-28T03:58:34.879Z,12.77
2023-02-28T04:01:09.106Z,7.55
2023-02-28T04:03:40.385Z,8.65
2023-02-28T04:06:14.954Z,8.90
2023-02-28T04:08:44.169Z,10.18
2023-02-28T04:11:21.784Z,12.45
2023-02-28T04:13:49.707Z,10.05
2023-02-28T04:16:33.429Z,10.85
2023-02-28T04:19:03.984Z,9.02
2023-02-28T04:21:32.360Z,12.07
2023-02-28T04:24:01.897Z,9.27
2023-02-28T04:26:31.763Z,9.63
2023-02-28T04:29:00.005Z,10.32
2023-02-28T04:31:29.171Z,9.80
2023-02-28T04:33:57.336Z,13.70
2023-02-28T04:36:25.578Z,12.18
2023-02-28T04:38:53.870Z,9.88
2023-02-28T04:41:23.908Z,12.02
2023-02-28T04:43:53.217Z,9.82
2023-02-28T04:46:21.875Z,10.27
2023-02-28T04:48:50.203Z,10.48
2023-02-28T04:51:20.106Z,10.27
2023-02-28T04:53:50.310Z,10.35
2023-02-28T04:56:19.788Z,10.77
2023-02-28T04:58:49.178Z,11.40
2023-02-28T05:01:21.071Z,13.68
2023-02-28T05:03:49.283Z,10.75
2023-02-28T05:06:18.085Z,16.73
2023-02-28T05:08:46.178Z,12.25
2023-02-28T05:11:20.268Z,11.35
2023-02-28T05:13:50.249Z,11.18
2023-02-28T05:16:18.958Z,15.63
2023-02-28T05:18:47.203Z,11.70
2023-02-28T05:21:27.174Z,10.93
2023-02-28T05:23:55.959Z,9.50
2023-02-28T05:26:24.187Z,13.93
2023-02-28T05:28:53.470Z,10.55
2023-02-28T05:31:21.438Z,14.55
2023-02-28T05:33:49.627Z,8.25
2023-02-28T05:36:17.525Z,10.05
2023-02-28T05:38:47.531Z,12.93
2023-02-28T05:41:15.532Z,16.73
2023-02-28T05:43:43.429Z,12.95
2023-02-28T05:46:14.022Z,16.90
2023-02-28T05:48:43.425Z,11.05
2023-02-28T05:51:11.455Z,11.52
2023-02-28T05:53:39.314Z,10.10
2023-02-28T05:56:08.131Z,17.58
2023-02-28T05:58:36.051Z,12.20
2023-02-28T06:01:24.348Z,14.90
2023-02-28T06:03:52.247Z,14.57
2023-02-28T06:06:20.179Z,18.05
2023-02-28T06:08:48.094Z,15.55
2023-02-28T06:11:16.033Z,12.57
2023-02-28T06:13:43.926Z,15.25
2023-02-28T06:16:13.343Z,14.55
2023-02-28T06:18:42.660Z,14.55
2023-02-28T06:21:10.521Z,14.50
2023-02-28T06:23:38.440Z,16.60
2023-02-28T06:26:06.642Z,13.65
2023-02-28T06:28:34.596Z,14.90
2023-02-28T06:31:08.708Z,16.40
2023-02-28T06:33:37.057Z,13.68
2023-02-28T06:36:07.751Z,14.27
2023-02-28T06:38:36.424Z,17.15
2023-02-28T06:41:05.212Z,12.90
2023-02-28T06:43:36.143Z,19.55
2023-02-28T06:46:07.526Z,15.15
2023-02-28T06:48:36.102Z,19.08
2023-02-28T06:51:07.915Z,14.57
2023-02-28T06:53:36.056Z,14.45
2023-02-28T06:56:07.507Z,15.90
2023-02-28T06:58:35.690Z,14.60
2023-02-28T07:01:04.437Z,16.35
2023-02-28T07:03:34.387Z,19.65
2023-02-28T07:06:03.711Z,14.93
2023-02-28T07:08:33.852Z,19.67
2023-02-28T07:11:01.906Z,15.88
2023-02-28T07:13:30.334Z,19.13
2023-02-28T07:15:59.468Z,17.25
2023-02-28T07:18:27.551Z,16.52
2023-02-28T07:20:55.822Z,14.70
2023-02-28T07:23:24.141Z,15.23
2023-02-28T07:25:54.242Z,19.83
2023-02-28T07:28:22.159Z,17.85
2023-02-28T07:30:50.099Z,16.70
2023-02-28T07:33:18.306Z,16.58
2023-02-28T07:35:46.389Z,15.73
2023-02-28T07:38:14.796Z,13.77
2023-02-28T07:40:42.795Z,19.30
2023-02-28T07:43:12.013Z,19.33
2023-02-28T07:45:39.959Z,18.75
2023-02-28T07:48:10.949Z,17.48
2023-02-28T07:50:38.972Z,16.17
2023-02-28T07:53:06.887Z,14.77
2023-02-28T07:55:34.810Z,15.60
2023-02-28T07:58:02.752Z,16.05
2023-02-28T08:00:33.019Z,20.95
2023-02-28T08:03:00.992Z,15.07
2023-02-28T08:05:28.909Z,21.52
2023-02-28T08:07:56.806Z,16.23
2023-02-28T08:10:25.287Z,17.63
2023-02-28T08:12:53.176Z,16.83
2023-02-28T08:15:21.040Z,21.02
2023-02-28T08:17:50.238Z,17.42
2023-02-28T08:20:18.105Z,18.27
2023-02-28T08:22:46.368Z,16.70
2023-02-28T08:25:14.269Z,18.58
2023-02-28T08:27:42.244Z,16.58
2023-02-28T08:30:12.551Z,19.80
2023-02-28T08:32:40.962Z,16.73
2023-02-28T08:35:11.397Z,18.65
2023-02-28T08:37:39.518Z,16.63
2023-02-28T08:40:08.948Z,18.77
2023-02-28T08:42:37.057Z,18.92
2023-02-28T08:45:05.544Z,17.73
2023-02-28T08:47:33.796Z,18.33
2023-02-28T08:50:01.668Z,19.92
2023-02-28T08:52:30.916Z,20.35
2023-02-28T08:54:58.840Z,19.58
2023-02-28T08:57:28.389Z,18.98
2023-02-28T08:59:56.251Z,15.90
2023-02-28T09:02:24.351Z,19.17
2023-02-28T09:04:52.237Z,19.42
2023-02-28T09:07:20.476Z,17.95
2023-02-28T09:09:55.739Z,19.67
2023-02-28T09:12:24.377Z,19.35
2023-02-28T09:14:52.510Z,18.45
2023-02-28T09:17:20.460Z,25.45
2023-02-28T09:19:50.048Z,15.25
2023-02-28T09:22:18.021Z,19.13
2023-02-28T09:24:46.517Z,18.50
2023-02-28T09:27:15.798Z,18.80
2023-02-28T09:29:43.689Z,17.85
2023-02-28T09:32:11.905Z,17.90
2023-02-28T09:34:40.114Z,22.65
2023-02-28T09:37:08.153Z,18.83
2023-02-28T09:39:36.043Z,23.02
2023-02-28T09:42:04.660Z,25.17
2023-02-28T09:44:38.391Z,14.48
2023-02-28T09:47:14.966Z,16.90
2023-02-28T09:49:47.296Z,22.48
2023-02-28T09:52:20.299Z,17.45
2023-02-28T09:54:48.519Z,17.80
2023-02-28T09:57:21.002Z,16.98
2023-02-28T10:00:08.207Z,18.65
2023-02-28T10:03:08.628Z,18.85
2023-02-28T10:05:44.327Z,18.85
2023-02-28T10:08:16.290Z,21.70
2023-02-28T10:10:47.195Z,18.80
2023-02-28T10:13:26.185Z,17.83
2023-02-28T10:16:00.745Z,18.98
2023-02-28T10:18:33.167Z,16.02
2023-02-28T10:21:01.754Z,20.45
2023-02-28T10:23:34.281Z,20.70
2023-02-28T10:26:07.631Z,26.35
2023-02-28T10:28:35.581Z,15.95
2023-02-28T10:31:05.384Z,31.23
2023-02-28T10:33:35.196Z,18.50
2023-02-28T10:36:04.989Z,20.10
2023-02-28T10:38:36.846Z,17.88
2023-02-28T10:41:07.513Z,19.20
2023-02-28T10:43:36.113Z,15.63
2023-02-28T10:46:15.788Z,20.70
2023-02-28T10:48:46.697Z,15.07
2023-02-28T10:51:16.437Z,17.30
2023-02-28T10:54:01.226Z,20.23
2023-02-28T10:56:31.401Z,18.42
2023-02-28T10:59:01.567Z,19.73
2023-02-28T11:01:40.765Z,19.75
2023-02-28T11:04:36.709Z,18.10
2023-02-28T11:07:07.994Z,19.73
2023-02-28T11:09:39.576Z,16.45
2023-02-28T11:12:10.730Z,20.17
2023-02-28T11:14:49.878Z,21.73
2023-02-28T11:17:23.401Z,16.27
2023-02-28T11:19:55.271Z,15.88
2023-02-28T11:22:29.626Z,15.75
2023-02-28T11:25:01.520Z,15.98
2023-02-28T11:27:47.917Z,15.73
2023-02-28T11:30:37.436Z,17.98
2023-02-28T11:33:25.381Z,25.85
2023-02-28T11:35:57.647Z,16.85
2023-02-28T11:38:26.595Z,18.38
2023-02-28T11:41:08.974Z,16.98
2023-02-28T11:43:52.348Z,19.98
2023-02-28T11:46:32.477Z,19.17
2023-02-28T11:49:18.046Z,24.55
2023-02-28T11:51:54.526Z,20.23
2023-02-28T11:54:56.853Z,15.77
2023-02-28T11:57:36.331Z,15.68
2023-02-28T12:00:30.771Z,15.50
2023-02-28T12:03:10.645Z,18.42
2023-02-28T12:05:47.791Z,17.38
2023-02-28T12:08:28.218Z,16.27
2023-02-28T12:11:07.342Z,13.75
2023-02-28T12:13:45.575Z,16.85
2023-02-28T12:19:09.912Z,12.82
2023-02-28T12:22:00.197Z,14.82
2023-02-28T12:24:47.820Z,15.25
2023-02-28T12:27:18.964Z,14.30
2023-02-28T12:29:52.323Z,11.23
2023-02-28T12:32:24.438Z,14.70
2023-02-28T12:34:56.789Z,14.80
2023-02-28T12:37:31.145Z,12.65
2023-02-28T12:40:06.156Z,16.52
2023-02-28T12:42:38.719Z,18.63
2023-02-28T12:45:12.936Z,13.90
2023-02-28T12:47:42.343Z,14.52
2023-02-28T12:50:13.450Z,13.38
2023-02-28T12:52:54.020Z,15.57
2023-02-28T12:55:29.866Z,15.35
2023-02-28T12:58:09.180Z,16.52
2023-02-28T13:00:40.358Z,14.55
2023-02-28T13:03:38.539Z,14.82
2023-02-28T13:06:34.217Z,14.07
2023-02-28T13:09:08.229Z,13.70
2023-02-28T13:11:42.211Z,14.55
2023-02-28T13:14:22.746Z,14.65
2023-02-28T13:16:57.851Z,16.83
2023-02-28T13:19:28.184Z,10.18
2023-02-28T13:21:57.262Z,14.50
2023-02-28T13:24:47.508Z,14.02
2023-02-28T13:27:34.730Z,13.40
2023-02-28T13:30:23.612Z,15.35
2023-02-28T13:35:47.241Z,18.42
2023-02-28T13:38:25.307Z,15.45
2023-02-28T13:40:53.228Z,11.65
2023-02-28T13:43:31.257Z,10.52
2023-02-28T13:46:13.758Z,12.82
2023-02-28T13:48:43.326Z,12.20
2023-02-28T13:51:41.856Z,13.10
2023-02-28T13:54:25.851Z,13.43
2023-02-28T13:57:06.559Z,14.55
2023-02-28T13:59:45.220Z,17.33
2023-02-28T14:02:46.040Z,12.77
2023-02-28T14:05:18.844Z,14.70
2023-02-28T14:07:50.257Z,13.10
2023-02-28T14:10:27.437Z,14.35
2023-02-28T14:12:57.914Z,14.70
2023-02-28T14:15:49.364Z,13.32
2023-02-28T14:18:22.685Z,17.13
2023-02-28T14:20:59.315Z,17.48
2023-02-28T14:24:05.248Z,16.17
2023-02-28T14:26:53.040Z,16.30
2023-02-28T14:29:38.866Z,18.88
2023-02-28T14:32:17.009Z,17.38
2023-02-28T14:37:27.323Z,15.35
2023-02-28T14:39:56.572Z,17.35
2023-02-28T14:42:32.208Z,14.98
2023-02-28T14:45:00.222Z,16.60
2023-02-28T14:47:32.517Z,20.25
2023-02-28T14:50:01.642Z,18.38
2023-02-28T14:52:32.736Z,14.82
2023-02-28T14:55:02.937Z,17.85
2023-02-28T14:57:32.906Z,19.27
2023-02-28T15:00:04.825Z,16.08
2023-02-28T15:02:35.926Z,14.32
2023-02-28T15:05:26.339Z,20.90
2023-02-28T15:08:12.712Z,15.80
2023-02-28T15:10:42.390Z,22.65
2023-02-28T15:13:14.559Z,18.00
2023-02-28T15:16:01.246Z,13.90
2023-02-28T15:18:35.311Z,16.23
2023-02-28T15:21:06.835Z,20.25
2023-02-28T15:23:38.342Z,17.75
2023-02-28T15:26:07.519Z,18.40
2023-02-28T15:28:35.669Z,21.77
2023-02-28T15:31:06.430Z,19.27
2023-02-28T15:33:35.559Z,17.45
2023-02-28T15:36:15.193Z,19.40
2023-02-28T15:38:45.144Z,18.20
2023-02-28T15:41:26.837Z,20.33
2023-02-28T15:44:16.912Z,18.60
2023-02-28T15:46:55.002Z,17.77
2023-02-28T15:51:53.614Z,17.48
2023-02-28T15:54:28.394Z,18.33
2023-02-28T15:56:59.561Z,18.40
2023-02-28T15:59:30.128Z,17.20
2023-02-28T16:02:13.540Z,20.05
2023-02-28T16:04:58.038Z,17.38
2023-02-28T16:07:26.405Z,16.98
2023-02-28T16:09:55.654Z,15.90
2023-02-28T16:12:27.873Z,15.60
2023-02-28T16:14:57.575Z,19.35
2023-02-28T16:17:28.229Z,19.25
2023-02-28T16:19:56.867Z,17.00
2023-02-28T16:22:24.830Z,18.27
2023-02-28T16:24:52.875Z,18.92
2023-02-28T16:27:30.717Z,19.85
2023-02-28T16:29:58.779Z,15.98
2023-02-28T16:32:26.781Z,20.23
2023-02-28T16:34:54.719Z,17.80
2023-02-28T16:37:22.614Z,25.65
2023-02-28T16:39:52.074Z,17.10
2023-02-28T16:42:25.874Z,17.90
2023-02-28T16:44:54.903Z,18.73
2023-02-28T16:47:23.678Z,20.45
2023-02-28T16:49:51.594Z,21.55
2023-02-28T16:52:19.481Z,19.08
2023-02-28T16:54:47.419Z,20.90
2023-02-28T16:57:22.732Z,28.05
2023-02-28T16:59:52.709Z,30.17
2023-02-28T17:02:21.467Z,21.63
2023-02-28T17:04:49.771Z,21.55
2023-02-28T17:07:18.774Z,21.08
2023-02-28T17:09:47.092Z,22.60
2023-02-28T17:12:15.415Z,23.15
2023-02-28T17:14:43.313Z,24.52
2023-02-28T17:17:19.419Z,25.60
2023-02-28T17:19:47.369Z,22.30
2023-02-28T17:22:15.698Z,21.02
2023-02-28T17:24:43.594Z,21.88
2023-02-28T17:27:14.352Z,20.85
2023-02-28T17:29:42.728Z,22.75
2023-02-28T17:32:17.870Z,18.15
2023-02-28T17:34:47.971Z,21.35
2023-02-28T17:37:15.895Z,22.48
2023-02-28T17:39:43.817Z,19.83
2023-02-28T17:42:11.878Z,20.58
2023-02-28T17:44:39.820Z,22.40
2023-02-28T17:47:07.724Z,25.35
2023-02-28T17:49:35.613Z,22.20
2023-02-28T17:52:05.147Z,23.20
2023-02-28T17:54:33.181Z,21.67
2023-02-28T17:57:01.092Z,22.83
2023-02-28T17:59:34.146Z,28.88
2023-02-28T18:02:02.399Z,27.38
2023-02-28T18:04:30.355Z,20.45
2023-02-28T18:07:00.914Z,24.50
2023-02-28T18:09:30.225Z,27.40
2023-02-28T18:11:58.536Z,23.77
2023-02-28T18:14:27.283Z,24.27
2023-02-28T18:16:56.353Z,25.38
2023-02-28T18:19:25.082Z,32.20
2023-02-28T18:21:54.771Z,24.45
2023-02-28T18:24:24.740Z,23.27
2023-02-28T18:26:54.174Z,24.42
2023-02-28T18:29:24.307Z,24.77
2023-02-28T18:31:52.794Z,21.83
2023-02-28T18:34:21.364Z,25.13
2023-02-28T18:36:51.004Z,28.05
2023-02-28T18:39:19.162Z,24.77
2023-02-28T18:41:47.234Z,23.85
2023-02-28T18:44:20.254Z,25.25
2023-02-28T18:46:49.431Z,28.00
2023-02-28T18:49:17.902Z,24.15
2023-02-28T18:51:46.592Z,25.10
2023-02-28T18:54:15.403Z,24.02
2023-02-28T18:56:43.829Z,21.25
2023-02-28T18:59:12.122Z,27.77
2023-02-28T19:01:41.418Z,25.17
2023-02-28T19:04:13.789Z,27.65
2023-02-28T19:06:42.058Z,22.48
2023-02-28T19:09:10.139Z,22.25
2023-02-28T19:11:38.284Z,21.40
2023-02-28T19:14:06.353Z,24.20
2023-02-28T19:16:34.469Z,22.92
2023-02-28T19:19:03.779Z,22.27
2023-02-28T19:21:31.734Z,27.33
2023-02-28T19:23:59.605Z,26.08
2023-02-28T19:26:28.199Z,26.88
2023-02-28T19:28:56.466Z,27.98
2023-02-28T19:31:26.303Z,23.65
2023-02-28T19:33:56.210Z,29.85
2023-02-28T19:36:26.923Z,30.20
2023-02-28T19:38:55.812Z,28.85
2023-02-28T19:41:24.324Z,27.90
2023-02-28T19:43:54.290Z,27.98
2023-02-28T19:46:22.215Z,23.15
2023-02-28T19:48:50.152Z,34.15
2023-02-28T19:53:52.131Z,27.42
2023-02-28T19:56:20.045Z,29.92
2023-02-28T19:58:47.931Z,26.73
2023-02-28T20:01:18.514Z,30.20
2023-02-28T20:03:49.403Z,28.10
2023-02-28T20:06:17.682Z,26.77
2023-02-28T20:08:45.897Z,35.58
2023-02-28T20:11:17.068Z,31.60
2023-02-28T20:13:45.679Z,34.47
2023-02-28T20:16:14.718Z,26.90
2023-02-28T20:18:44.200Z,29.23
2023-02-28T20:21:12.582Z,32.42
2023-02-28T20:23:41.269Z,28.35
2023-02-28T20:26:09.964Z,32.97
2023-02-28T20:28:40.207Z,30.33
2023-02-28T20:31:13.923Z,30.88
2023-02-28T20:33:42.019Z,31.40
2023-02-28T20:36:10.351Z,38.03
2023-02-28T20:38:38.552Z,33.63
2023-02-28T20:41:07.102Z,33.38
2023-02-28T20:43:35.379Z,33.45
2023-02-28T20:46:05.173Z,32.30
2023-02-28T20:48:35.849Z,42.58
2023-02-28T20:51:05.157Z,44.50
2023-02-28T20:53:35.610Z,37.15
2023-02-28T20:56:06.010Z,36.85
2023-02-28T20:58:35.965Z,39.53
2023-02-28T21:01:15.997Z,48.03
2023-02-28T21:03:44.829Z,35.22
2023-02-28T21:06:13.158Z,39.10
2023-02-28T21:08:41.856Z,40.47
2023-02-28T21:11:10.304Z,35.05
2023-02-28T21:13:38.863Z,38.70
2023-02-28T21:16:10.416Z,37.05
2023-02-28T21:18:39.406Z,35.72
2023-02-28T21:21:09.053Z,31.58
2023-02-28T21:23:36.972Z,33.60
2023-02-28T21:26:05.575Z,37.53
2023-02-28T21:28:34.112Z,34.42
2023-02-28T21:31:02.975Z,32.38
2023-02-28T21:33:32.648Z,40.55
2023-02-28T21:36:05.528Z,33.78
2023-02-28T21:38:34.148Z,36.70
2023-02-28T21:41:05.803Z,36.53
2023-02-28T21:43:34.175Z,31.85
2023-02-28T21:46:03.567Z,35.50
2023-02-28T21:48:33.345Z,32.97
2023-02-28T21:51:03.127Z,34.13
2023-02-28T21:53:31.883Z,32.65
2023-02-28T21:56:01.376Z,37.83
2023-02-28T21:58:29.520Z,36.15
2023-02-28T22:01:05.295Z,35.40
2023-02-28T22:03:35.350Z,34.17
2023-02-28T22:06:09.807Z,34.72
2023-02-28T22:08:37.724Z,35.03
2023-02-28T22:11:06.677Z,32.97
2023-02-28T22:13:34.903Z,34.28
2023-02-28T22:16:04.363Z,35.10
2023-02-28T22:18:32.311Z,34.78
2023-02-28T22:21:01.612Z,33.35
2023-02-28T22:23:29.934Z,37.17
2023-02-28T22:25:58.408Z,42.25
2023-02-28T22:28:27.445Z,38.22
2023-02-28T22:30:55.312Z,32.55
2023-02-28T22:33:23.465Z,36.17
2023-02-28T22:35:52.481Z,33.47
2023-02-28T22:38:22.670Z,34.08
2023-02-28T22:40:50.593Z,33.83
2023-02-28T22:43:18.487Z,36.03
2023-02-28T22:45:46.358Z,37.60
2023-02-28T22:48:14.223Z,36.33
2023-02-28T22:50:42.754Z,34.25
2023-02-28T22:53:10.756Z,34.88
2023-02-28T22:55:39.948Z,32.67
2023-02-28T22:58:07.834Z,33.20
2023-02-28T23:00:35.733Z,33.15
2023-02-28T23:03:03.578Z,31.10
2023-02-28T23:05:31.645Z,32.83
2023-02-28T23:08:01.011Z,35.42
2023-02-28T23:10:28.895Z,35.60
2023-02-28T23:12:58.094Z,34.65
2023-02-28T23:15:25.975Z,38.53
2023-02-28T23:17:53.862Z,40.60
2023-02-28T23:20:22.391Z,44.47
2023-02-28T23:22:51.455Z,37.33
2023-02-28T23:25:20.107Z,43.05
2023-02-28T23:27:48.670Z,34.67
2023-02-28T23:30:18.613Z,36.95
2023-02-28T23:32:46.597Z,33.97
2023-02-28T23:35:14.578Z,43.13
2023-02-28T23:37:42.540Z,35.10
2023-02-28T23:40:13.226Z,41.50
2023-02-28T23:42:41.702Z,33.63
2023-02-28T23:45:11.559Z,32.45
2023-02-28T23:47:41.658Z,35.45
2023-02-28T23:50:11.266Z,39.63
2023-02-28T23:52:40.277Z,36.17
2023-02-28T23:55:08.935Z,33.58
2023-02-28T23:57:36.866Z,35.58
